CST,Max TemperatureF,Mean TemperatureF,Min TemperatureF,Max Dew PointF,MeanDew PointF,Min DewpointF,Max Humidity, Mean Humidity, Min Humidity, Max Sea Level PressureIn, Mean Sea Level PressureIn, Min Sea Level PressureIn, Max VisibilityMiles, Mean VisibilityMiles, Min VisibilityMiles, Max Wind SpeedMPH, Mean Wind SpeedMPH, Max Gust SpeedMPH,PrecipitationIn, CloudCover, Events, WindDirDegrees
2012-1-1,73,62,48,60,52,31,100,77,42,30.28,30.18,30.11,10,6,0,16,7,24,0.00,4,Fog,244
2012-1-2,52,44,36,31,17,6,58,36,19,30.38,30.32,30.24,10,10,10,23,10,36,0.00,0,,308
2012-1-3,42,34,24,20,12,7,81,45,28,30.53,30.44,30.38,10,10,10,14,6,20,0.00,0,,319
2012-1-4,57,38,19,35,19,11,89,54,17,30.45,30.35,30.26,10,10,10,13,3,,0.00,0,,210
2012-1-5,66,52,36,46,38,31,96,69,28,30.28,30.21,30.16,10,10,5,8,5,,0.00,0,,270
2012-1-6,69,50,32,50,40,29,100,81,45,30.20,30.13,30.07,10,8,0,12,1,17,0.00,1,Fog-Rain,219
2012-1-7,73,60,48,58,54,48,100,91,49,30.15,30.11,30.06,10,5,0,10,3,,0.11,4,Fog-Rain-Hail,203
2012-1-8,69,62,54,63,59,54,100,95,73,30.20,30.15,30.12,10,5,0,7,2,,0.21,4,Fog-Rain,168
2012-1-9,73,64,55,63,60,54,100,89,53,30.18,30.12,30.05,10,6,0,8,4,,0.00,5,Fog-Rain,168
2012-1-10,64,60,55,63,60,53,100,96,93,30.06,29.90,29.70,10,6,0,9,4,,0.30,6,Fog-Rain-Hail,120
2012-1-11,64,54,43,64,49,41,97,80,60,29.78,29.69,29.60,10,9,2,16,9,28,0.50,6,Rain-Thunderstorm,209
2012-1-12,57,47,35,53,40,18,100,78,42,30.10,29.83,29.74,10,8,0,21,6,33,0.00,4,Fog,247
2012-1-13,45,36,27,25,19,15,89,57,32,30.30,30.21,30.11,10,10,10,10,5,18,0.00,0,,285
2012-1-14,57,40,23,28,21,15,88,52,20,30.39,30.30,30.25,10,10,10,12,3,18,0.00,0,,215
2012-1-15,62,46,30,34,28,21,88,60,21,30.49,30.41,30.31,10,10,10,7,2,,0.00,0,Rain,321
2012-1-16,68,54,39,50,38,30,89,59,32,30.44,30.35,30.25,10,10,10,14,5,18,0.00,0,Hail,160
2012-1-17,69,61,53,62,58,50,97,89,68,30.23,30.11,30.01,10,8,2,16,7,23,1.13,5,Rain-Hail-Thunderstorm,193
2012-1-18,55,44,33,52,38,30,93,77,40,30.23,30.14,30.06,10,10,10,16,10,23,0.00,3,,334
2012-1-19,64,47,30,46,31,23,92,59,24,30.19,30.10,30.04,10,10,10,9,4,16,0.00,1,,166
2012-1-20,73,62,52,65,60,48,100,92,71,30.06,30.01,29.95,10,8,2,15,6,22,0.55,6,Rain-Hail,174
2012-1-21,73,66,60,65,62,59,100,91,68,30.02,29.98,29.90,10,7,0,13,7,24,0.34,5,Fog-Rain-Thunderstorm,207
2012-1-22,69,63,57,66,63,57,100,94,84,30.07,30.02,29.97,10,6,0,12,4,21,0.00,5,Fog-Rain,156
2012-1-23,71,62,53,66,62,52,100,90,78,30.08,30.00,29.93,10,7,0,17,9,31,0.79,5,Fog-Rain-Thunderstorm,191
2012-1-24,66,56,46,52,45,39,100,69,40,30.22,30.15,30.08,10,9,1,9,3,,0.00,1,Hail,16
2012-1-25,78,66,55,61,51,39,84,64,52,30.16,30.09,30.00,10,10,10,15,7,22,0.00,3,Rain-Hail,125
2012-1-26,70,65,59,66,62,55,97,89,81,30.01,29.83,29.74,10,9,2,16,9,31,0.65,6,Rain-Thunderstorm,177
2012-1-27,60,50,37,50,42,35,93,72,41,30.09,29.98,29.82,10,10,10,16,9,22,0.00,2,Rain,297
2012-1-28,66,50,34,42,37,28,93,63,36,30.31,30.20,30.08,10,10,10,13,3,,0.00,0,Hail,309
2012-1-29,60,47,33,29,19,2,82,45,11,30.45,30.39,30.32,10,10,10,9,5,,0.00,0,,359
2012-1-30,64,46,28,34,25,15,85,53,15,30.46,30.39,30.35,10,10,10,7,1,,0.00,0,Rain,157
2012-1-31,72,58,43,52,42,26,80,59,44,30.36,30.29,30.22,10,10,10,14,4,18,0.00,0,,158